Flight Track Log - Related Links

Times and Time Zones

All times are in EDT time to prevent confusion due to time zone crossing. See the SWA1610 flight status page for this flight to view local times or setup timezone preferences in your user account.

Time Position Orientation Groundspeed Altitude Reporting Facility
EDT Latitude Longitude Course Direction KTS MPH feet Rate Location/Type
Sat 01:47:14 AM 33.9447 -118.4533 264° West 169 194 1,500  Level Los Angeles Center
Sat 01:48:15 AM 33.9386 -118.5242 264° West 210 242 3,800 2,628 Climbing Los Angeles Center
Sat 01:49:15 AM 33.9314 -118.6139 264° West 268 308 6,800 3,124 Climbing Los Angeles Center
Sat 01:50:16 AM 33.9192 -118.7081 261° West 294 338 10,100 3,344 Climbing Los Angeles Center
Sat 01:51:17 AM 33.9028 -118.8228 260° West 332 382 13,600 3,148 Climbing Los Angeles Center
Sat 01:52:18 AM 33.8861 -118.9358 260° West 346 398 16,500 2,607 Climbing Los Angeles Center
Sat 01:53:19 AM 33.9281 -119.0119 304° West 361 415 18,900 2,705 Climbing Los Angeles Center
Sat 01:54:20 AM 34.0097 -119.1181 313° West 364 419 22,000 2,803 Climbing Los Angeles Center
Sat 01:55:21 AM 34.0828 -119.2100 314° West 377 434 24,600 2,380 Climbing Los Angeles Center
Sat 01:56:21 AM 34.1628 -119.2989 317° Northwest 389 448 26,800 2,083 Climbing Los Angeles Center
Sat 01:57:22 AM 34.2447 -119.3892 318° Northwest 398 458 28,800 2,164 Climbing Los Angeles Center
Sat 01:58:23 AM 34.3261 -119.4814 317° Northwest 400 460 31,200 2,341 Climbing Los Angeles Center
Sat 01:59:25 AM 34.4053 -119.5714 317° Northwest 391 450 33,600 2,049 Climbing Los Angeles Center
Sat 02:00:26 AM 34.4808 -119.6586 316° Northwest 380 437 35,400 1,180 Climbing Los Angeles Center
Sat 02:01:27 AM 34.5594 -119.7467 317° Northwest 385 443 36,000 50 Climbing Los Angeles Center
Sat 02:02:27 AM 34.6461 -119.8442 317° Northwest 383 441 35,500 -744 Descending Los Angeles Center
Sat 02:03:28 AM 34.7236 -119.9322 317° Northwest 381 438 34,500 -738 Descending Los Angeles Center
Sat 02:04:29 AM 34.8019 -120.0211 317° Northwest 384 442 34,000 -246 Descending Los Angeles Center
Sat 02:05:30 AM 34.8772 -120.1072 317° Northwest 390 449 34,000  Level Los Angeles Center
Sat 02:06:31 AM 34.9569 -120.1978 317° Northwest 395 455 34,000  Level Los Angeles Center
Sat 02:07:31 AM 35.0367 -120.2900 317° Northwest 398 458 34,000  Level Los Angeles Center
Sat 02:08:32 AM 35.1156 -120.3817 316° Northwest 396 456 34,000  Level Los Angeles Center
Sat 02:09:33 AM 35.2119 -120.4931 317° Northwest 400 460 34,000  Level Los Angeles Center
Sat 02:10:34 AM 35.2908 -120.5867 316° Northwest 399 459 34,000  Level Los Angeles Center
Sat 02:11:35 AM 35.3717 -120.6800 317° Northwest 400 460 34,000  Level Los Angeles Center
Sat 02:12:27 AM 35.4311 -120.7517 316° Northwest 399 459 34,000  Level Oakland Center
Sat 02:13:28 AM 35.5164 -120.8403 320° Northwest 399 459 34,000  Level Oakland Center
Sat 02:14:28 AM 35.6086 -120.9214 324° Northwest 403 464 34,000  Level Oakland Center
Sat 02:15:29 AM 35.7172 -121.0197 324° Northwest 400 460 34,000  Level Oakland Center
Sat 02:16:29 AM 35.8075 -121.1019 324° Northwest 402 463 34,000  Level Oakland Center
Sat 02:17:30 AM 35.8975 -121.1828 324° Northwest 400 460 34,000  Level Oakland Center
Sat 02:18:30 AM 35.9875 -121.2653 323° Northwest 400 460 34,000  Level Oakland Center
Sat 02:19:31 AM 36.0775 -121.3481 323° Northwest 400 460 34,000  Level Oakland Center
Sat 02:20:31 AM 36.1675 -121.4294 324° Northwest 400 460 34,000 -397 Level Oakland Center
Sat 02:21:32 AM 36.2561 -121.5119 323° Northwest 398 458 33,200 -1,884 Descending Oakland Center
Sat 02:22:32 AM 36.3439 -121.5931 323° Northwest 395 455 30,200 -2,905 Descending Oakland Center
Sat 02:23:07 AM 36.4000 -121.6500 321° Northwest 375 432 28,600 -2,530 Descending Northern Cal TRACON
Sat 02:23:55 AM 36.4667 -121.7000 329° Northwest 356 410 26,700 -2,263 Descending Northern Cal TRACON
Sat 02:25:01 AM 36.5500 -121.7833 321° Northwest 342 394 24,300 -2,150 Descending Northern Cal TRACON
Sat 02:25:55 AM 36.6167 -121.8333 329° Northwest 366 421 22,400 -2,211 Descending Northern Cal TRACON
Sat 02:26:55 AM 36.6833 -121.9167 315° West 361 415 20,100 -2,200 Descending Northern Cal TRACON
Sat 02:27:55 AM 36.7667 -121.9667 334° Northwest 312 359 18,000 -2,050 Descending Northern Cal TRACON
Sat 02:28:55 AM 36.8500 -121.9833 351° North 312 359 16,000 -1,842 Descending Northern Cal TRACON
Sat 02:29:36 AM 36.8844 -121.9986 340° North 312 359 14,900 -1,663 Descending Oakland Center
Sat 02:30:36 AM 36.9783 -122.0272 346° North 294 338 13,200 -1,190 Descending Oakland Center
Sat 02:31:37 AM 37.0458 -122.0447 348° North 259 298 12,500 -942 Descending Oakland Center
Sat 02:32:37 AM 37.1083 -122.0608 348° North 236 272 11,300 -1,140 Descending Oakland Center
Sat 02:33:38 AM 37.1689 -122.0758 349° North 226 260 10,200 -992 Descending Oakland Center
Sat 02:34:38 AM 37.2300 -122.0925 348° North 225 259 9,300 -1,140 Descending Oakland Center
Sat 02:35:39 AM 37.2883 -122.1081 348° North 219 252 7,900 -1,289 Descending Oakland Center
Sat 02:36:39 AM 37.3475 -122.1225 349° North 217 250 6,700 -1,150 Descending Oakland Center
Sat 02:37:39 AM 37.4050 -122.1364 349° North 211 243 5,600 -843 Descending Oakland Center
Sat 02:38:40 AM 37.4625 -122.1525 347° North 211 243 5,000 -694 Descending Oakland Center
Sat 02:39:40 AM 37.5086 -122.1803 334° Northwest 195 224 4,200 -942 Descending Oakland Center
Sat 02:40:41 AM 37.5478 -122.2181 323° Northwest 181 208 3,100 -992 Descending Oakland Center
Sat 02:41:41 AM 37.5706 -122.2678 300° West 176 203 2,200 -1,200 Descending Oakland Center
Sat 02:42:41 AM 37.5919 -122.3164 299° West 165 190 700 -992 Descending Oakland Center
Sat 02:43:42 AM 37.6117 -122.3594 300° West 153 176 200 -492 Descending Oakland Center
Sat 02:45:00 AM 37.6167 -122.3667 322° Northwest  Level FlightAware Approximate
Sat 02:52:00 AM 37.6191 -122.3752 322° Northwest  Level Estimated

Login

Don't have an account? Register now (free) for customized features, flight alerts, and more!